Brockton, Massachusetts
Current Conditions -  °F | °C
As of 2:53 AM on Monday 24 Nov 2014 (Local Time) from KOWD Reporting Station
Overcast Overcast  
Wind Chill: 39°   Ceiling: 400
Heat Index: 39°   Visibility: 10mi
Dew Point: 36°   Wind: 0mph
Humidity: 89%   Direction: NA
Pressure: 30.03"   Gusts: NA
Location:  42.08°N, 71.02°W
Report Text: KOWD 240753Z AUTO 00000KT 10SM OVC004 04/02 A3003 RMK AO2 SLP169 T00390022
Loading
Personal Weather Stations






























Interactive Weather Map New forecast layout! Learn more

10-Day Weather Forecast

Advertisements
Track Severe Weather on mobile